RUNMAGEDDON NOCNY REKRUT WARSZAWA
Runmageddon Warszawa
Organizator : Extreme Events, Runmageddon
Data : 2021-05-29
Miejsce : Warszawa
Dystans : 6 km
Zgłoszonych : 167
Wystartowało : 156
Nie ukończyło : 2
Ukończyło : 154
Na trasie : 2
Pełne wyniki :
Uproszczone :
Klasyfikacje w punktach pomiarowych: Start | Meta
Klasyfikacja wg czasu brutto. Wyniki nieoficjalne !!!
MscZawodnikNumerKlubMiejscowośćKrajKategoriaMkatK/MSeriaCzas startuCzas
netto
6km
Czas
brutto
6km
Różn.Tempo
min/km
Tempo
km/h
        
1SŁABASZEWSKI Kamil 2531HARPAGAN BEASTOpen Mężczyzn1M 121:3000:00:0000:44:54.8000:44:54.80 7:298,0
2SCHUTZ Lukas Marco 2651Open Mężczyzn2M 221:3000:00:0000:46:16.7500:46:16.75+00:01:217:427,8
3SKOWROŃSKI Andrzej 2585Open Mężczyzn3M 321:3000:00:0000:50:21.5000:50:21.50+00:05:268:237,1
4KUDUK Arkadiusz 2665Open Mężczyzn4M 421:3000:00:0000:54:06.8000:54:06.80+00:09:129:016,7
5NIEDZIELA Sebastian 2593HARPAGAN BEASTOpen Mężczyzn5M 521:3000:00:0000:55:07.7500:55:07.75+00:10:129:116,5
6ŚLIWIŃSKI Sebastian 2654Open Mężczyzn6M 621:4500:00:0000:56:03.4000:56:03.40+00:11:089:206,4
7CICHOCKI Piotrek 2641Open Mężczyzn7M 721:4500:00:0000:58:12.8000:58:12.80+00:13:189:426,2
8ROMANOWSKI Patryk 2583Open Mężczyzn8M 821:3000:00:0000:58:34.3000:58:34.30+00:13:399:456,1
9WYSOCKA Małgorzata 2590Open Kobiet1K 121:3000:00:0000:59:14.2000:59:14.20+00:14:199:526,1
9LUDEW Tomasz 2577Open Mężczyzn9M 921:3000:00:0000:59:14.2000:59:14.20+00:14:199:526,1
11ULEWICZ Mariola Ulewicz Vanilla 2588Open Kobiet2K 221:3000:00:0001:00:41.2501:00:41.25+00:15:4610:065,9
12POLUS Piotr Peter 2622POWER TRAININGOpen Mężczyzn10M 1021:4500:00:0001:00:52.8001:00:52.80+00:15:5810:085,9
13GOŁASZEWSKI Mateusz 2664Open Mężczyzn11M 1121:3000:00:0001:01:58.4001:01:58.40+00:17:0310:195,8
14ZAKRZEWSKI Marcin 2607MITMAROpen Mężczyzn12M 1221:4500:00:0001:01:58.5001:01:58.50+00:17:0310:195,8
15KUCIŃSKI Krzysztof 2605MITMAROpen Mężczyzn13M 1321:4500:00:0001:02:31.9501:02:31.95+00:17:3710:255,8
16SULEJ Konrad 2586Open Mężczyzn14M 1421:3000:00:0001:02:34.0001:02:34.00+00:17:3910:255,8
17KOŁODZIEJCZYK Łukasz 2644Open Mężczyzn15M 1521:4500:00:0001:02:38.0501:02:38.05+00:17:4310:265,7
18FOKS Grzegorz 2603MITMAROpen Mężczyzn16M 1621:4500:00:0001:03:07.2501:03:07.25+00:18:1210:315,7
19ZYGMUNT Rafał 2661MITMAROpen Masters Mężczyzn1M 1721:4500:00:0001:03:08.1501:03:08.15+00:18:1310:315,7
20GRYCH Wojciech 2566Open Mężczyzn17M 1821:3000:00:0001:05:12.0501:05:12.05+00:20:1710:525,5
21GRYCH Marek 2565Open Mężczyzn18M 1921:3000:00:0001:05:12.2501:05:12.25+00:20:1710:525,5
22BUDEK Weronika 2640Open Kobiet3K 321:3000:00:0001:06:10.6501:06:10.65+00:21:1511:015,4
23FILAS Rafał 2642Open Mężczyzn19M 2021:3000:00:0001:06:30.3501:06:30.35+00:21:3511:055,4
24KOZŁOWSKI Mateusz 2604MITMAROpen Mężczyzn20M 2121:4500:00:0001:06:50.3001:06:50.30+00:21:5511:085,4
25KOWALIK Magda 2524ForumOpen Kobiet4K 421:3000:00:0001:06:55.9001:06:55.90+00:22:0111:095,4
26GŁASZCZKA Szymon 2562Open Mężczyzn21M 2221:3000:00:0001:07:18.4501:07:18.45+00:22:2311:135,3
27PASIK Konrad 2580Open Mężczyzn22M 2321:3000:00:0001:07:25.2501:07:25.25+00:22:3011:145,3
28MALIK Szymon 2646Open Masters Mężczyzn2M 2421:4500:00:0001:07:46.9001:07:46.90+00:22:5211:175,3
29BIEŃCZYCKI Łukasz 2522ForumOpen Mężczyzn23M 2521:3000:00:0001:07:48.7501:07:48.75+00:22:5311:185,3
30BEDNARSKA Beata 2639Open Kobiet5K 521:4500:00:0001:07:48.9001:07:48.90+00:22:5411:185,3
31DŁUGOSZ Hubert 2523ForumOpen Mężczyzn24M 2621:3000:00:0001:07:49.0501:07:49.05+00:22:5411:185,3
32LATAŁA Piotr 2525ForumOpen Mężczyzn25M 2721:3000:00:0001:07:49.1001:07:49.10+00:22:5411:185,3
33PILCH Anna 2528ForumOpen Kobiet6K 621:3000:00:0001:07:49.2001:07:49.20+00:22:5411:185,3
34NOWAK Karolina 2527ForumOpen Kobiet7K 721:3000:00:0001:07:49.3001:07:49.30+00:22:5411:185,3
35NOWAK Dawid 2526ForumOpen Mężczyzn26M 2821:3000:00:0001:07:49.4001:07:49.40+00:22:5411:185,3
36RAFAŁ Paweł 2648Open Masters Mężczyzn3M 2921:4500:00:0001:07:59.9001:07:59.90+00:23:0511:195,3
37JEZIORSKI Marcin 2643Open Masters Mężczyzn4M 3021:4500:00:0001:08:01.6501:08:01.65+00:23:0611:205,3
38ŚWIOSTEK Leszek 2510Balco TeamOpen Mężczyzn27M 3121:3000:00:0001:08:16.4501:08:16.45+00:23:2111:225,3
39ŁUCYK Tomasz 2507Balco TeamOpen Mężczyzn28M 3221:3000:00:0001:08:16.5001:08:16.50+00:23:2111:225,3
40NIEMIRSKI Dominik 2647Open Mężczyzn29M 3321:3000:00:0001:08:22.2501:08:22.25+00:23:2711:235,3
41JAGODA Katarzyna 2505Balco TeamOpen Kobiet8K 821:3000:00:0001:08:26.6001:08:26.60+00:23:3111:245,3
42GÓRSKI Andrzej 2564Open Masters Mężczyzn5M 3421:3000:00:0001:08:36.7501:08:36.75+00:23:4111:265,2
43NICEWICZ Elwira 2578Open Kobiet9K 921:3000:00:0001:08:36.8001:08:36.80+00:23:4211:265,2
44NIEMCZYK Michał 2508Balco TeamOpen Mężczyzn30M 3521:3000:00:0001:08:40.5501:08:40.55+00:23:4511:265,2
45PAŁAC Paweł 2509Balco TeamOpen Mężczyzn31M 3621:3000:00:0001:08:45.6501:08:45.65+00:23:5011:275,2
46BUCHERT Robert 2504Balco TeamOpen Masters Mężczyzn6M 3721:3000:00:0001:08:48.0001:08:48.00+00:23:5311:285,2
47KOCHAŃSKI Krzysztof 2618PlemnikiOpen Mężczyzn32M 3821:4500:00:0001:10:00.2001:10:00.20+00:25:0511:405,1
48BRONIEK Jakub 2615PlemnikiOpen Mężczyzn33M 3921:4500:00:0001:10:00.5501:10:00.55+00:25:0511:405,1
49JABŁOŃSKI Adrian 2617PlemnikiOpen Mężczyzn34M 4021:4500:00:0001:10:00.8501:10:00.85+00:25:0611:405,1
50BRONIEK Rafał 2616PlemnikiOpen Mężczyzn35M 4121:4500:00:0001:10:01.1001:10:01.10+00:25:0611:405,1
51SZYMBORSKI Patryk 2619PlemnikiOpen Mężczyzn36M 4221:4500:00:0001:10:01.7001:10:01.70+00:25:0611:405,1
52 2669  100:00:4201:09:21.3001:10:03.65+00:25:0811:335,2
53BOGUCKI Marcin 2529GTBOpen Mężczyzn37M 4321:3000:00:0001:12:32.4001:12:32.40+00:27:3712:055,0
54PONICHTERA Paweł 2624Silni inaczejOpen Mężczyzn38M 4421:4500:00:0001:12:33.0501:12:33.05+00:27:3812:055,0
55PARADOWSKI Andrzej 2623Silni inaczejOpen Mężczyzn39M 4521:4500:00:0001:12:33.4001:12:33.40+00:27:3812:055,0
56NOSAL Szymon 2530GTBOpen Mężczyzn40M 4621:3000:00:0001:12:44.3501:12:44.35+00:27:4912:074,9
57 2668  200:00:4001:12:16.2001:12:56.45+00:28:0112:025,0
58KWIATKOWSKI Marcin 2574Open Masters Mężczyzn7M 4721:3000:00:0001:16:02.1001:16:02.10+00:31:0712:404,7
59SICZEK Grzegorz 2652Open Masters Mężczyzn8M 4821:4500:00:0001:16:54.2501:16:54.25+00:31:5912:494,7
60ZASŁONKA Paweł 2597Knights of Nightskating WarszawaOpen Mężczyzn41M 4921:4500:00:0001:17:05.3001:17:05.30+00:32:1012:504,7
61SĘK Paweł 2596Knights of Nightskating WarszawaOpen Mężczyzn42M 5021:4500:00:0001:17:06.2501:17:06.25+00:32:1112:514,7
62KAPISZ Michał 2595Knights of Nightskating WarszawaOpen Mężczyzn43M 5121:4500:00:0001:17:08.3001:17:08.30+00:32:1312:514,7
63SZCZOTOK Wiktor 2658Carbon Silesia SportOpen Mężczyzn44M 5221:3000:00:0001:17:10.4501:17:10.45+00:32:1512:514,7
64ADAMCZYK Karolina 2554Open Kobiet10K 1021:3000:00:0001:17:10.7501:17:10.75+00:32:1512:514,7
65KHANTIL Anton 2634Star Navy SEALsOpen Mężczyzn45M 5321:4500:00:0001:18:23.6001:18:23.60+00:33:2813:034,6
66ROMANYUK Mykyta 2635Star Navy SEALsOpen Mężczyzn46M 5421:4500:00:0001:18:30.3501:18:30.35+00:33:3513:054,6
67SZYMANOWSKA Agnieszka 2518Diagnostyka Sp. z o.o.Open Masters Kobiet1K 1121:3000:00:0001:19:44.7001:19:44.70+00:34:4913:174,5
68WOJTASIEWICZ Beata 2519Diagnostyka Sp. z o.o.Open Masters Kobiet2K 1221:3000:00:0001:19:53.0001:19:53.00+00:34:5813:184,5
69BROŻEK Michał 2515Diagnostyka Sp. z o.o.Open Masters Mężczyzn9M 5521:3000:00:0001:19:53.9001:19:53.90+00:34:5913:184,5
70DURAJ Karina 2516Diagnostyka Sp. z o.o.Open Kobiet11K 1321:3000:00:0001:20:08.0001:20:08.00+00:35:1313:214,5
71JELEŃ Paulina 2517Diagnostyka Sp. z o.o.Open Kobiet12K 1421:3000:00:0001:20:16.9501:20:16.95+00:35:2213:224,5
72ORLIK Kinga 2514Beckhoff Bro TeamOpen Kobiet13K 1521:3000:00:0001:24:12.9001:24:12.90+00:39:1814:024,3
73CISŁAK Anna 2512Beckhoff Bro TeamOpen Kobiet14K 1621:3000:00:0001:24:14.3001:24:14.30+00:39:1914:024,3
74GÓRSKI Tomasz 2513Beckhoff Bro TeamOpen Mężczyzn47M 5621:3000:00:0001:24:26.3001:24:26.30+00:39:3114:044,3
75KAMIŃSKI Adrian 2569Open Mężczyzn48M 5721:3000:08:1301:16:29.4501:24:43.10+00:39:4812:444,7
76DAMSKA Marta 2560Open Kobiet15K 1721:3000:00:0001:24:51.0001:24:51.00+00:39:5614:084,2
77GEMBARZEWSKA-ADACH Zofia 2561Open Kobiet16K 1821:3000:00:0001:24:52.2501:24:52.25+00:39:5714:084,2
78KOWALIK Karol 2645Open Mężczyzn49M 5821:3000:00:0001:26:51.0001:26:51.00+00:41:5614:284,1
79RÓŻYCKA Hanna 2630SiusiakiOpen Kobiet17K 1921:3000:00:0001:26:51.1501:26:51.15+00:41:5614:284,1
80MOSTOWSKI Radosław 2627SiusiakiOpen Mężczyzn50M 5921:3000:00:0001:26:51.2001:26:51.20+00:41:5614:284,1
81WIŚNIEWSKI Arkadiusz 2632SiusiakiOpen Mężczyzn51M 6021:3000:00:0001:26:51.4501:26:51.45+00:41:5614:284,1
82CHOJKO Beata 2663Open Masters Kobiet3K 2021:3000:00:0001:26:52.1001:26:52.10+00:41:5714:284,1
83KUBERA Iwona 2572Open Kobiet18K 2121:3000:00:0001:28:01.9001:28:01.90+00:43:0714:404,1
84KUBERA Łukasz 2573Open Mężczyzn52M 6121:3000:00:0001:28:02.1501:28:02.15+00:43:0714:404,1
85WSZOŁA Katarzyna 2532M4S and FriendsOpen Kobiet19K 2221:3000:00:0001:28:33.9001:28:33.90+00:43:3914:454,1
86ŚRODEK Marcin 2659M4S and FriendsOpen Mężczyzn53M 6221:3000:00:0001:28:34.2501:28:34.25+00:43:3914:454,1
87CEGIELSKA Magda 2556Open Kobiet20K 2321:3000:00:0001:28:34.7001:28:34.70+00:43:3914:454,1
88WSZOŁA Piotr 2533M4S and FriendsOpen Mężczyzn54M 6321:3000:00:0001:28:34.9001:28:34.90+00:43:4014:454,1
89FERRER Hugo 2666Open Mężczyzn55M 6421:3000:00:0001:28:35.1501:28:35.15+00:43:4014:454,1
90PARTYKA Bartłomiej 2601Mało zdolni, ale leniwiOpen Mężczyzn56M 6521:4500:00:0001:28:49.7001:28:49.70+00:43:5414:484,1
91WIATROWSKA Agnieszka 2602Mało zdolni, ale leniwiOpen Kobiet21K 2421:4500:00:0001:28:49.7501:28:49.75+00:43:5414:484,1
92FETLIŃSKI Grzegorz 2594Husaria Race Team Open Masters Mężczyzn10M 6621:4500:00:0001:28:55.4501:28:55.45+00:44:0014:494,0
93ŚLIWA Katarzyna 2653Open Kobiet22K 2521:4500:00:0001:28:57.2501:28:57.25+00:44:0214:494,0
94KOŁAKOWSKI Rafał 2621PoSzosieGoOpen Mężczyzn57M 6721:4500:00:0001:30:41.2001:30:41.20+00:45:4615:064,0
95KOŁAKOWSKI Patryk 2620PoSzosieGoOpen Mężczyzn58M 6821:4500:00:0001:31:39.0001:31:39.00+00:46:4415:163,9
96GOGOLIŃSKA Magdalena 2563Open Kobiet23K 2621:3000:00:0001:31:51.4501:31:51.45+00:46:5615:183,9
97JAWOREK Łukasz 2610PatointeligencjaOpen Mężczyzn59M 6921:4500:00:0001:31:52.1501:31:52.15+00:46:5715:183,9
98SZYMAŃSKI Antoni 2587Open Mężczyzn60M 7021:3000:00:0001:31:52.2001:31:52.20+00:46:5715:183,9
99KACZYŃSKI Zbigniew 2568Open Mężczyzn61M 7121:3000:00:0001:32:09.1501:32:09.15+00:47:1415:213,9
100STANULA Karol 2656Open Mężczyzn62M 7221:4500:00:0001:33:52.0001:33:52.00+00:48:5715:383,8
101STANULA Albert 2655Open Mężczyzn63M 7321:4500:00:0001:33:52.0501:33:52.05+00:48:5715:383,8
102 2667  300:00:3301:33:24.9501:33:58.30+00:49:0315:343,9
103DOŁOSZYCKA Małgorzata 2552Wybity palecOpen Kobiet24K 2721:3000:00:0001:36:29.0501:36:29.05+00:51:3416:043,7
104PASTUKHOV Alex 2553Wybity palecOpen Mężczyzn64M 7421:3000:00:0001:36:29.2001:36:29.20+00:51:3416:043,7
105OSEŁKA Grażyna 2579Open Masters Kobiet4K 2821:3000:00:0001:36:55.6501:36:55.65+00:52:0016:093,7
106ADAMKIEWICZ Izabela 2555Open Masters Kobiet5K 2921:3000:00:0001:36:58.2501:36:58.25+00:52:0316:093,7
107KACA Grzegorz 2538Nie ma lipy!Open Mężczyzn65M 7521:3000:00:0001:38:28.2001:38:28.20+00:53:3316:243,7
108ZIÓŁKOWSKI Adam 2542Nie ma lipy!Open Mężczyzn66M 7621:3000:00:0001:38:29.7001:38:29.70+00:53:3416:243,7
109KRZESZYCHA Magdalena 2539Nie ma lipy!Open Kobiet25K 3021:3000:00:0001:38:39.3001:38:39.30+00:53:4416:263,6
110OSTATEK Marcin 2540Nie ma lipy!Open Mężczyzn67M 7721:3000:00:0001:39:01.3001:39:01.30+00:54:0616:303,6
111ZIÓŁKOWSKI Michał 2543Nie ma lipy!Open Mężczyzn68M 7821:3000:00:0001:39:01.4501:39:01.45+00:54:0616:303,6
112PLUTA Łukasz 2541Nie ma lipy!Open Mężczyzn69M 7921:3000:00:0001:39:01.7001:39:01.70+00:54:0616:303,6
113SKOTNICKA Izabela 2535MIKOOpen Kobiet26K 3121:3000:00:0001:39:24.8501:39:24.85+00:54:3016:343,6
114SKOTNICKA Olga 2536MIKOOpen Kobiet27K 3221:3000:00:0001:39:25.1501:39:25.15+00:54:3016:343,6
115ROJEK Michał 2534MIKOOpen Mężczyzn70M 8021:3000:00:0001:39:25.3001:39:25.30+00:54:3016:343,6
116SZTANKIEWICZ Krystian 2537MIKOOpen Mężczyzn71M 8121:3000:00:0001:39:25.5001:39:25.50+00:54:3016:343,6
117ROMAN Magdalena 2613PatointeligencjaOpen Kobiet28K 3321:4500:00:0001:40:00.1001:40:00.10+00:55:0516:403,6
117DĘBSKI Michał 2608PatointeligencjaOpen Mężczyzn72M 8221:4500:00:0001:40:00.1001:40:00.10+00:55:0516:403,6
117MACHNIO Bartosz Jan 2612PatointeligencjaOpen Mężczyzn72M 8221:4500:00:0001:40:00.1001:40:00.10+00:55:0516:403,6
120DOMAGALSKI Hubert 2609PatointeligencjaOpen Mężczyzn74M 8421:4500:00:0001:40:00.3001:40:00.30+00:55:0516:403,6
121KUPIS Wiktoria 2611PatointeligencjaOpen Kobiet29K 3421:4500:00:0001:40:00.4501:40:00.45+00:55:0516:403,6
122ZIMKA Gabriela 2614PatointeligencjaOpen Kobiet30K 3521:4500:00:0001:40:00.5001:40:00.50+00:55:0516:403,6
123JEZIORAŃSKI Bartosz 2520EV REPAIROpen Masters Mężczyzn11M 8521:3000:00:0001:40:22.9501:40:22.95+00:55:2816:433,6
124MALISZEWSKA Irmina 2521EV REPAIROpen Kobiet31K 3621:3000:00:0001:40:23.2501:40:23.25+00:55:2816:433,6
125MILCZARCZYK Monika 2503AGDPRO.PLOpen Kobiet32K 3721:3000:00:0001:40:23.4001:40:23.40+00:55:2816:433,6
126GRĘDZIK Izabela 2501AGDPRO.PLOpen Kobiet33K 3821:3000:00:0001:40:23.7001:40:23.70+00:55:2816:433,6
127BUSZMAN Michał 2500AGDPRO.PLOpen Mężczyzn75M 8621:3000:00:0001:40:24.3001:40:24.30+00:55:2916:443,6
128KOSTRZEWSKI Jan 2545Wiejska WarriorsOpen Mężczyzn76M 8721:3000:00:0001:40:47.7501:40:47.75+00:55:5216:473,6
129WEŁPA Łukasz 2549Wiejska WarriorsOpen Mężczyzn77M 8821:3000:00:0001:40:48.1001:40:48.10+00:55:5316:483,6
130KLUBA Barbara 2544Wiejska WarriorsOpen Kobiet34K 3921:3000:00:0001:40:48.8001:40:48.80+00:55:5416:483,6
131RACZYŃSKA VEL WASILUK-PACIOREK Anna 2548Wiejska WarriorsOpen Kobiet35K 4021:3000:00:0001:40:48.9001:40:48.90+00:55:5416:483,6
132WIĘCH Grażyna 2550Wiejska WarriorsOpen Kobiet36K 4121:3000:00:0001:40:49.0501:40:49.05+00:55:5416:483,6
133PETRYKA Artur 2660Open Mężczyzn78M 8921:3000:00:0001:40:49.5501:40:49.55+00:55:5416:483,6
134LEKSIŃSKI Michal 2547Wiejska WarriorsOpen Mężczyzn79M 9021:3000:00:0001:40:49.7001:40:49.70+00:55:5416:483,6
135ZOLTOWSKI Marek 2551Wiejska WarriorsOpen Mężczyzn80M 9121:3000:00:0001:40:49.8501:40:49.85+00:55:5516:483,6
136ZALEWSKI Adam 2591Open Mężczyzn81M 9221:3000:03:4001:37:23.2501:41:04.20+00:56:0916:133,7
137DĄBROWSKI Marcin 2559Open Mężczyzn82M 9321:3000:00:0001:41:07.7001:41:07.70+00:56:1216:513,6
138DĄBROWSKA Kamila 2558Open Kobiet37K 4221:3000:00:0001:41:08.4001:41:08.40+00:56:1316:513,6
139STUCZYŃSKI Mateusz 2638WafflewaffeOpen Mężczyzn83M 9421:4500:00:0001:41:55.9001:41:55.90+00:57:0116:593,5
140SOKOŁOWSKI Oskar 2637WafflewaffeOpen Mężczyzn84M 9521:4500:00:0001:41:59.5001:41:59.50+00:57:0416:593,5
141CHRAPKOWSKI Grzegorz 2636WafflewaffeOpen Mężczyzn85M 9621:4500:00:0001:42:07.1001:42:07.10+00:57:1217:013,5
142REDZIŃSKI VEL RYDZYŃSKI Jakub 2582Open Mężczyzn86M 9721:4500:00:0001:42:49.9501:42:49.95+00:57:5517:083,5
143POLAK Marcin 2581Open Mężczyzn87M 9821:4500:00:0001:42:59.5001:42:59.50+00:58:0417:093,5
144KRUK Daniel 2571Open Mężczyzn88M 9921:4500:00:0001:43:00.0501:43:00.05+00:58:0517:103,5
145WOŁOS Rafał 2600Leśne JagódkiOpen Mężczyzn89M 10021:4500:00:0001:43:50.3501:43:50.35+00:58:5517:183,5
146STEFAŃSKA Paulina 2599Leśne JagódkiOpen Kobiet38K 4321:4500:00:0001:43:50.5001:43:50.50+00:58:5517:183,5
147KARASIŃSKI Bartosz 2598Leśne JagódkiOpen Mężczyzn90M 10121:4500:00:0001:43:57.0501:43:57.05+00:59:0217:193,5
148ROBAK Sylwester 2650Open Mężczyzn91M 10221:4500:00:0001:45:23.6501:45:23.65+01:00:2817:333,4
149ROBAK Joanna 2649Open Masters Kobiet6K 4421:4500:00:0001:45:24.9001:45:24.90+01:00:3017:343,4
150GUZEWICZ Michał 2567Open Mężczyzn92M 10321:3000:00:0001:48:33.3501:48:33.35+01:03:3818:053,3
151LASKOWIECKA Dorota 2575Open Kobiet39K 4521:3000:00:0001:48:35.2001:48:35.20+01:03:4018:053,3
152ZIMOCHOCKI Adrian 2592Open Mężczyzn93M 10421:3000:00:0001:50:09.5501:50:09.55+01:05:1418:213,3
153KOPCZYŃSKI Krystian 2570Open Mężczyzn94M 10521:3000:00:0001:50:11.5001:50:11.50+01:05:1618:213,3
154CZARNECKA Joanna 2557Open Masters Kobiet7K 4621:3000:00:0001:50:14.4001:50:14.40+01:05:1918:223,3
155LEGEŻYŃSKI Jarosław 2576Open Mężczyzn95M 10621:3000:00:00   
156KIEŁCZYKOWSKA Monika 2502AGDPRO.PLOpen Kobiet40K 4721:3000:00:00   
Znaleziono 156 wynik(ów)